Folcroft, Pennsylvania
Current Conditions -  °F | °C
As of 6:54 PM on Tuesday 25 Nov 2014 (Local Time) from KPHL Reporting Station
Broken Clouds Broken Clouds  
Wind Chill: 50°   Ceiling: 23000
Heat Index: 50°   Visibility: 10mi
Dew Point: 31°   Wind: 8mph
Humidity: 48%   Direction: 230°SW
Pressure: 30.11"   Gusts: NA
Location:  39.9°N, 75.28°W
Report Text: KPHL 252354Z 23007KT 10SM BKN230 10/M01 A3011 RMK AO2 SLP195 T01001006 10128 20094 53022 $
Loading
Personal Weather Stations






























Interactive Weather Map New forecast layout! Learn more

10-Day Weather Forecast

Advertisements
Track Severe Weather on mobile